Time;durP1;ratioP1;P1;durP2;ratioP2;P2;SDS_P1;SDS_P2;PMS_P1;PMS_P2;Temp;Humidity;BMP_temperature;BMP_pressure;BME280_temperature;BME280_humidity;BME280_pressure;Samples;Min_cycle;Max_cycle;Signal;HPM_P1;HPM_P2
2022/01/21 00:01:27;;;;;;;0.20;0.20;;;;;;;;;;5089631;28;20032;-62
2022/01/21 00:03:53;;;;;;;0.20;0.20;;;;;;;;;;5090254;28;20026;-60
2022/01/21 00:06:18;;;;;;;0.20;0.20;;;;;;;;;;5089663;28;20106;-61
2022/01/21 00:08:45;;;;;;;0.20;0.20;;;;;;;;;;5089251;28;20436;-61
2022/01/21 00:11:11;;;;;;;0.20;0.20;;;;;;;;;;5089240;28;20080;-61
2022/01/21 00:13:37;;;;;;;0.20;0.20;;;;;;;;;;5087406;28;20097;-62
2022/01/21 00:16:23;;;;;;;0.22;0.22;;;;;;;;;;5079759;28;20103;-61
2022/01/21 00:18:59;;;;;;;0.10;0.10;;;;;;;;;;5068948;28;20388;-60
2022/01/21 00:32:21;;;;;;;0.50;0.50;;;;;;;;;;5068928;28;20033;-61
2022/01/21 00:34:47;;;;;;;0.20;0.20;;;;;;;;;;5050536;28;20492;-60
2022/01/21 00:37:12;;;;;;;2.17;1.92;;;;;;;;;;5033859;28;20044;-61
2022/01/21 00:39:39;;;;;;;14.27;13.35;;;;;;;;;;5060266;28;20119;-61
2022/01/21 00:44:33;;;;;;;0.20;0.20;;;;;;;;;;5070621;28;20051;-62
2022/01/21 00:46:59;;;;;;;0.40;0.40;;;;;;;;;;5069375;28;20075;-61
2022/01/21 00:49:24;;;;;;;0.20;0.20;;;;;;;;;;5050422;28;20033;-61
2022/01/21 00:51:50;;;;;;;0.20;0.20;;;;;;;;;;5049690;28;20495;-61
2022/01/21 00:54:15;;;;;;;0.22;0.22;;;;;;;;;;5068716;28;20392;-60
2022/01/21 00:56:41;;;;;;;0.50;0.50;;;;;;;;;;5068171;28;20033;-60
2022/01/21 00:59:06;;;;;;;0.30;0.30;;;;;;;;;;5068467;28;20032;-62
2022/01/21 01:01:32;;;;;;;0.20;0.20;;;;;;;;;;5068433;28;20464;-61
2022/01/21 01:03:58;;;;;;;0.50;0.50;;;;;;;;;;5068228;28;20451;-61
2022/01/21 01:06:25;;;;;;;1.27;1.13;;;;;;;;;;5067937;28;20127;-61
2022/01/21 01:08:52;;;;;;;0.75;0.75;;;;;;;;;;5050250;28;20112;-61
2022/01/21 01:11:29;;;;;;;2.58;1.98;;;;;;;;;;5050117;28;20082;-65
2022/01/21 01:22:07;;;;;;;0.20;0.20;;;;;;;;;;5050193;28;20492;-61
2022/01/21 01:29:57;;;;;;;0.20;0.20;;;;;;;;;;5068063;28;20040;-60
2022/01/21 01:32:24;;;;;;;0.20;0.20;;;;;;;;;;5067918;28;20044;-60
2022/01/21 01:34:50;;;;;;;0.20;0.20;;;;;;;;;;5033540;28;20057;-64
2022/01/21 01:37:32;;;;;;;0.13;0.13;;;;;;;;;;5033610;28;20086;-60
2022/01/21 01:40:15;;;;;;;0.20;0.20;;;;;;;;;;5049746;28;20033;-61
2022/01/21 01:50:52;;;;;;;0.20;0.20;;;;;;;;;;5067593;28;20059;-60
2022/01/21 01:53:19;;;;;;;0.28;0.28;;;;;;;;;;5033088;28;20119;-60
2022/01/21 01:55:45;;;;;;;0.20;0.20;;;;;;;;;;5049572;28;20052;-66
2022/01/21 01:58:13;;;;;;;0.20;0.20;;;;;;;;;;5072709;28;20491;-62
2022/01/21 02:00:38;;;;;;;0.20;0.20;;;;;;;;;;5069102;28;20035;-61
2022/01/21 02:03:11;;;;;;;0.20;0.20;;;;;;;;;;5071348;28;20036;-62
2022/01/21 02:05:37;;;;;;;0.20;0.20;;;;;;;;;;5073431;28;20059;-61
2022/01/21 02:08:04;;;;;;;0.20;0.20;;;;;;;;;;5073217;28;20032;-61
2022/01/21 02:10:34;;;;;;;0.20;0.20;;;;;;;;;;5073259;28;20122;-60
2022/01/21 02:13:06;;;;;;;0.20;0.20;;;;;;;;;;5073022;28;20525;-63
2022/01/21 02:15:35;;;;;;;0.30;0.30;;;;;;;;;;5056496;28;20105;-60
2022/01/21 02:23:28;;;;;;;0.20;0.20;;;;;;;;;;5090728;28;20488;-60
2022/01/21 02:25:54;;;;;;;0.20;0.20;;;;;;;;;;5073296;28;20028;-60
2022/01/21 02:28:20;;;;;;;0.20;0.20;;;;;;;;;;5091029;28;20024;-60
2022/01/21 02:30:52;;;;;;;0.20;0.20;;;;;;;;;;5072703;28;20077;-67
2022/01/21 02:33:18;;;;;;;0.20;0.20;;;;;;;;;;5072892;28;20399;-60
2022/01/21 02:35:43;;;;;;;0.20;0.20;;;;;;;;;;5091116;28;20028;-61
2022/01/21 02:38:09;;;;;;;0.20;0.20;;;;;;;;;;5090897;28;20032;-62
2022/01/21 02:40:35;;;;;;;0.20;0.20;;;;;;;;;;5072577;28;20387;-60
2022/01/21 02:43:01;;;;;;;0.28;0.28;;;;;;;;;;5090647;28;20499;-60
2022/01/21 02:45:27;;;;;;;0.20;0.20;;;;;;;;;;5072408;28;20559;-61
2022/01/21 02:47:53;;;;;;;0.20;0.20;;;;;;;;;;5072771;28;20036;-63
2022/01/21 02:50:19;;;;;;;0.20;0.20;;;;;;;;;;5072625;28;20047;-60
2022/01/21 02:53:08;;;;;;;0.28;0.28;;;;;;;;;;5055647;28;20028;-61
2022/01/21 02:55:34;;;;;;;0.20;0.20;;;;;;;;;;5072752;28;20383;-61
2022/01/21 02:57:59;;;;;;;5.57;2.33;;;;;;;;;;5090879;28;20028;-61
2022/01/21 03:00:25;;;;;;;0.98;0.90;;;;;;;;;;5072346;28;20028;-61
2022/01/21 03:02:50;;;;;;;0.30;0.30;;;;;;;;;;5090389;28;20085;-61
2022/01/21 03:05:18;;;;;;;0.25;0.25;;;;;;;;;;5072196;28;20036;-62
2022/01/21 03:07:44;;;;;;;0.20;0.20;;;;;;;;;;5072246;28;20032;-61
2022/01/21 03:10:10;;;;;;;0.30;0.30;;;;;;;;;;5055604;28;20043;-61
2022/01/21 03:12:35;;;;;;;0.22;0.22;;;;;;;;;;5090151;28;20032;-60
2022/01/21 03:15:01;;;;;;;0.20;0.20;;;;;;;;;;5089947;28;20043;-61
2022/01/21 03:17:26;;;;;;;0.20;0.20;;;;;;;;;;5072264;28;20419;-60
2022/01/21 03:19:52;;;;;;;0.28;0.28;;;;;;;;;;5072167;28;20478;-62
2022/01/21 03:22:18;;;;;;;0.20;0.20;;;;;;;;;;5072010;28;20031;-62
2022/01/21 03:24:43;;;;;;;0.20;0.20;;;;;;;;;;5090023;28;20123;-61
2022/01/21 03:27:09;;;;;;;0.20;0.20;;;;;;;;;;5090162;28;20077;-61
2022/01/21 03:29:34;;;;;;;0.20;0.20;;;;;;;;;;5072010;28;20039;-61
2022/01/21 03:32:00;;;;;;;0.20;0.20;;;;;;;;;;5071872;28;20036;-60
2022/01/21 03:34:26;;;;;;;0.20;0.20;;;;;;;;;;5072130;28;20039;-60
2022/01/21 03:36:54;;;;;;;0.20;0.20;;;;;;;;;;5055211;28;20036;-60
2022/01/21 03:39:20;;;;;;;0.20;0.20;;;;;;;;;;5071805;28;20032;-60
2022/01/21 03:41:45;;;;;;;0.30;0.30;;;;;;;;;;5089911;28;20031;-64
2022/01/21 03:44:13;;;;;;;0.20;0.20;;;;;;;;;;5071952;28;20035;-60
2022/01/21 03:46:39;;;;;;;0.25;0.25;;;;;;;;;;5071456;28;20024;-60
2022/01/21 03:49:07;;;;;;;0.20;0.20;;;;;;;;;;5071742;28;20867;-60
2022/01/21 03:51:34;;;;;;;0.20;0.20;;;;;;;;;;5071597;28;20131;-60
2022/01/21 03:54:00;;;;;;;0.30;0.30;;;;;;;;;;5089893;28;20166;-62
2022/01/21 03:56:27;;;;;;;0.20;0.20;;;;;;;;;;5071683;28;20028;-60
2022/01/21 03:58:54;;;;;;;1.38;1.27;;;;;;;;;;5071504;28;20067;-63
2022/01/21 04:01:21;;;;;;;0.20;0.20;;;;;;;;;;5071305;28;20560;-60
2022/01/21 04:03:47;;;;;;;0.20;0.20;;;;;;;;;;5071333;28;20036;-61
2022/01/21 04:06:12;;;;;;;0.30;0.30;;;;;;;;;;5054892;28;20410;-60
2022/01/21 04:08:38;;;;;;;0.20;0.20;;;;;;;;;;5089224;28;20028;-60
2022/01/21 04:11:04;;;;;;;0.20;0.20;;;;;;;;;;5054650;28;20028;-60
2022/01/21 04:13:31;;;;;;;0.20;0.20;;;;;;;;;;5071226;28;20403;-59
2022/01/21 04:16:00;;;;;;;0.20;0.20;;;;;;;;;;5071269;28;20032;-61
2022/01/21 04:18:28;;;;;;;0.20;0.20;;;;;;;;;;5071349;28;20036;-66
2022/01/21 04:20:56;;;;;;;0.20;0.20;;;;;;;;;;5070962;28;20081;-61
2022/01/21 04:23:23;;;;;;;0.20;0.20;;;;;;;;;;5071195;28;20032;-66
2022/01/21 04:25:49;;;;;;;0.28;0.28;;;;;;;;;;5088612;28;20081;-59
2022/01/21 04:28:15;;;;;;;0.20;0.20;;;;;;;;;;5071199;28;20483;-61
2022/01/21 04:30:42;;;;;;;0.20;0.20;;;;;;;;;;5070953;28;20483;-61
2022/01/21 04:33:08;;;;;;;0.17;0.17;;;;;;;;;;5089135;28;20034;-61
2022/01/21 04:35:34;;;;;;;0.20;0.20;;;;;;;;;;5071116;28;20097;-61
2022/01/21 04:38:04;;;;;;;0.10;0.10;;;;;;;;;;5071183;28;20036;-60
2022/01/21 04:40:34;;;;;;;0.20;0.20;;;;;;;;;;5071001;28;20062;-60
2022/01/21 04:48:33;;;;;;;0.20;0.20;;;;;;;;;;5070919;28;20032;-61
2022/01/21 04:51:12;;;;;;;0.20;0.20;;;;;;;;;;5070795;28;20040;-60
2022/01/21 04:53:44;;;;;;;0.20;0.20;;;;;;;;;;5071204;28;20101;-60
2022/01/21 04:56:19;;;;;;;0.20;0.20;;;;;;;;;;5070719;28;20084;-60
2022/01/21 04:58:45;;;;;;;0.20;0.20;;;;;;;;;;5070907;28;20446;-61
2022/01/21 05:01:12;;;;;;;0.20;0.20;;;;;;;;;;5088717;28;20093;-61
2022/01/21 05:03:39;;;;;;;0.38;0.38;;;;;;;;;;5088353;28;20479;-61
2022/01/21 05:06:06;;;;;;;0.20;0.20;;;;;;;;;;5053924;28;20024;-61
2022/01/21 05:08:53;;;;;;;0.20;0.20;;;;;;;;;;5070516;28;20043;-67
2022/01/21 05:11:18;;;;;;;0.13;0.13;;;;;;;;;;5070628;28;20040;-65
2022/01/21 05:16:36;;;;;;;0.20;0.20;;;;;;;;;;5074689;28;20044;-60
2022/01/21 05:19:05;;;;;;;0.20;0.20;;;;;;;;;;5070329;28;20089;-64
2022/01/21 05:21:57;;;;;;;0.20;0.20;;;;;;;;;;5084175;28;20040;-60
2022/01/21 05:24:28;;;;;;;0.20;0.20;;;;;;;;;;5070345;28;20134;-63
2022/01/21 05:26:54;;;;;;;0.20;0.20;;;;;;;;;;5070038;28;20123;-64
2022/01/21 05:29:24;;;;;;;0.15;0.15;;;;;;;;;;5070282;28;20040;-61
2022/01/21 05:31:58;;;;;;;0.15;0.15;;;;;;;;;;5069789;28;20119;-62
2022/01/21 05:34:43;;;;;;;0.10;0.10;;;;;;;;;;5066327;28;20127;-60
2022/01/21 05:37:19;;;;;;;0.13;0.13;;;;;;;;;;5090594;28;20032;-60
2022/01/21 05:40:04;;;;;;;0.20;0.20;;;;;;;;;;5092163;28;20050;-60
2022/01/21 05:42:48;;;;;;;0.20;0.20;;;;;;;;;;5059282;28;20043;-60
2022/01/21 05:48:28;;;;;;;0.20;0.20;;;;;;;;;;5091444;28;20487;-61
2022/01/21 05:51:32;;;;;;;0.20;0.20;;;;;;;;;;5029241;28;20077;-65
2022/01/21 05:54:22;;;;;;;0.10;0.10;;;;;;;;;;5029539;28;20449;-60
2022/01/21 05:57:01;;;;;;;0.20;0.20;;;;;;;;;;5054766;28;20052;-65
2022/01/21 05:59:32;;;;;;;0.20;0.20;;;;;;;;;;5092059;28;20028;-60
2022/01/21 06:01:58;;;;;;;0.20;0.20;;;;;;;;;;5091373;28;20638;-62
2022/01/21 06:04:24;;;;;;;0.20;0.20;;;;;;;;;;5091652;28;20119;-61
2022/01/21 06:06:52;;;;;;;0.77;0.73;;;;;;;;;;5073042;28;20027;-61
2022/01/21 06:09:20;;;;;;;2.38;2.28;;;;;;;;;;5072744;28;20119;-61
2022/01/21 06:11:45;;;;;;;0.28;0.28;;;;;;;;;;5091080;28;20176;-60
2022/01/21 06:14:11;;;;;;;0.20;0.20;;;;;;;;;;5091324;28;20028;-61
2022/01/21 06:16:38;;;;;;;0.30;0.30;;;;;;;;;;5090973;28;20110;-66
2022/01/21 06:19:03;;;;;;;0.20;0.20;;;;;;;;;;5073539;28;20032;-61
2022/01/21 06:21:29;;;;;;;0.20;0.20;;;;;;;;;;5072960;28;20036;-60
2022/01/21 06:23:54;;;;;;;0.20;0.20;;;;;;;;;;5090960;28;20039;-62
2022/01/21 06:26:20;;;;;;;0.20;0.20;;;;;;;;;;5073001;28;20502;-60
2022/01/21 06:28:45;;;;;;;0.15;0.15;;;;;;;;;;5090954;28;20099;-60
2022/01/21 06:31:11;;;;;;;0.30;0.30;;;;;;;;;;5091464;28;20127;-61
2022/01/21 06:33:36;;;;;;;0.20;0.20;;;;;;;;;;5091100;28;20038;-61
2022/01/21 06:36:02;;;;;;;0.20;0.20;;;;;;;;;;5073152;28;20391;-61
2022/01/21 06:38:28;;;;;;;0.13;0.13;;;;;;;;;;5090810;28;20032;-61
2022/01/21 06:40:54;;;;;;;0.30;0.30;;;;;;;;;;5090535;28;20080;-61
2022/01/21 06:43:19;;;;;;;0.20;0.20;;;;;;;;;;5073298;28;20020;-60
2022/01/21 06:45:45;;;;;;;0.20;0.20;;;;;;;;;;5090675;28;20043;-60
2022/01/21 06:48:10;;;;;;;0.20;0.20;;;;;;;;;;5089897;28;20024;-60
2022/01/21 06:50:37;;;;;;;0.20;0.20;;;;;;;;;;5090417;28;20050;-61
2022/01/21 06:53:03;;;;;;;0.20;0.20;;;;;;;;;;5090469;28;20159;-61
2022/01/21 06:55:29;;;;;;;0.20;0.20;;;;;;;;;;5090548;28;20123;-60
2022/01/21 06:57:55;;;;;;;0.17;0.17;;;;;;;;;;5086177;28;20111;-61
2022/01/21 07:00:21;;;;;;;0.20;0.20;;;;;;;;;;5038683;28;20090;-60
2022/01/21 07:02:48;;;;;;;0.20;0.20;;;;;;;;;;5090318;28;20464;-59
2022/01/21 07:05:14;;;;;;;0.20;0.20;;;;;;;;;;5072279;28;20574;-62
2022/01/21 07:07:40;;;;;;;0.20;0.20;;;;;;;;;;5072129;28;20178;-61
2022/01/21 07:10:07;;;;;;;0.20;0.20;;;;;;;;;;5089452;28;20119;-61
2022/01/21 07:12:35;;;;;;;0.20;0.20;;;;;;;;;;5090143;28;20020;-62
2022/01/21 07:15:01;;;;;;;0.20;0.20;;;;;;;;;;5090659;28;20043;-61
2022/01/21 07:17:27;;;;;;;0.10;0.10;;;;;;;;;;5072022;28;20040;-61
2022/01/21 07:19:52;;;;;;;0.22;0.22;;;;;;;;;;5089625;28;20039;-61
2022/01/21 07:22:18;;;;;;;0.63;0.63;;;;;;;;;;5072336;28;20028;-67
2022/01/21 07:24:44;;;;;;;0.20;0.20;;;;;;;;;;5089788;28;20040;-61
2022/01/21 07:27:09;;;;;;;0.20;0.20;;;;;;;;;;5055100;28;20077;-60
2022/01/21 07:29:35;;;;;;;0.28;0.28;;;;;;;;;;5089696;28;20116;-60
2022/01/21 07:32:00;;;;;;;0.20;0.20;;;;;;;;;;5090234;28;20028;-60
2022/01/21 07:34:26;;;;;;;0.20;0.20;;;;;;;;;;5090017;28;20391;-59
2022/01/21 07:36:52;;;;;;;0.25;0.25;;;;;;;;;;5081128;28;20631;-61
2022/01/21 07:39:18;;;;;;;0.17;0.17;;;;;;;;;;5110395;28;20038;-62
2022/01/21 07:41:43;;;;;;;0.20;0.20;;;;;;;;;;5074843;28;20039;-60
2022/01/21 07:44:09;;;;;;;0.20;0.20;;;;;;;;;;5110126;28;20372;-61
2022/01/21 07:46:35;;;;;;;0.30;0.30;;;;;;;;;;5074946;28;20043;-61
2022/01/21 07:49:01;;;;;;;0.20;0.20;;;;;;;;;;5109745;28;20043;-62
2022/01/21 07:51:26;;;;;;;0.25;0.25;;;;;;;;;;5083128;28;20108;-60
2022/01/21 07:53:52;;;;;;;0.47;0.47;;;;;;;;;;5079912;28;20054;-61
2022/01/21 07:56:19;;;;;;;0.20;0.20;;;;;;;;;;5046186;28;20519;-60
2022/01/21 07:58:45;;;;;;;0.50;0.50;;;;;;;;;;5060998;28;20042;-60
2022/01/21 08:01:10;;;;;;;0.30;0.30;;;;;;;;;;5069942;28;20395;-60
2022/01/21 08:03:36;;;;;;;0.25;0.25;;;;;;;;;;5082468;28;20039;-61
2022/01/21 08:06:01;;;;;;;0.28;0.28;;;;;;;;;;5078472;28;20056;-61
2022/01/21 08:08:27;;;;;;;0.30;0.30;;;;;;;;;;5057626;28;20036;-59
2022/01/21 08:10:54;;;;;;;0.20;0.20;;;;;;;;;;5033731;28;20037;-62
2022/01/21 08:13:20;;;;;;;0.20;0.20;;;;;;;;;;5034841;28;20174;-60
2022/01/21 08:15:45;;;;;;;0.30;0.30;;;;;;;;;;5069048;28;20111;-61
2022/01/21 08:18:12;;;;;;;0.20;0.20;;;;;;;;;;5084334;28;20043;-60
2022/01/21 08:20:38;;;;;;;0.70;0.70;;;;;;;;;;5060028;28;20029;-63
2022/01/21 08:23:04;;;;;;;0.30;0.30;;;;;;;;;;5068631;28;20028;-62
2022/01/21 08:25:29;;;;;;;0.30;0.30;;;;;;;;;;5034255;28;20583;-66
2022/01/21 08:27:55;;;;;;;0.20;0.20;;;;;;;;;;5087409;28;20032;-64
2022/01/21 08:30:20;;;;;;;0.20;0.20;;;;;;;;;;5089308;28;20042;-61
2022/01/21 08:32:46;;;;;;;0.28;0.28;;;;;;;;;;5080933;28;20047;-61
2022/01/21 08:35:11;;;;;;;0.20;0.20;;;;;;;;;;5069242;28;20048;-61
2022/01/21 08:37:37;;;;;;;0.20;0.20;;;;;;;;;;5077227;28;20050;-62
2022/01/21 08:40:03;;;;;;;0.20;0.20;;;;;;;;;;5087543;28;20046;-62
2022/01/21 08:42:28;;;;;;;0.30;0.30;;;;;;;;;;5086975;28;20055;-60
2022/01/21 08:44:54;;;;;;;0.20;0.20;;;;;;;;;;5086646;28;20036;-62
2022/01/21 08:47:21;;;;;;;0.30;0.30;;;;;;;;;;5086794;28;20103;-60
2022/01/21 08:49:48;;;;;;;0.20;0.20;;;;;;;;;;5086983;28;20036;-62
2022/01/21 08:52:19;;;;;;;0.30;0.30;;;;;;;;;;5051937;28;20051;-62
2022/01/21 08:54:48;;;;;;;0.25;0.25;;;;;;;;;;5052588;28;20039;-61
2022/01/21 08:57:14;;;;;;;0.45;0.45;;;;;;;;;;5054148;28;20052;-63
2022/01/21 08:59:40;;;;;;;0.82;0.77;;;;;;;;;;5081257;28;20036;-61
2022/01/21 09:02:05;;;;;;;0.20;0.20;;;;;;;;;;5077123;28;20319;-68
2022/01/21 09:04:32;;;;;;;0.60;0.60;;;;;;;;;;5088851;28;20040;-68
2022/01/21 09:06:58;;;;;;;0.15;0.15;;;;;;;;;;5061232;28;20036;-64
2022/01/21 09:09:24;;;;;;;0.17;0.17;;;;;;;;;;5048005;28;20118;-66
2022/01/21 09:11:52;;;;;;;0.20;0.20;;;;;;;;;;5085793;28;20032;-63
2022/01/21 09:14:17;;;;;;;0.20;0.20;;;;;;;;;;5087964;28;20471;-67
2022/01/21 09:16:43;;;;;;;0.20;0.20;;;;;;;;;;5087872;28;20020;-62
2022/01/21 09:19:08;;;;;;;0.25;0.25;;;;;;;;;;5087649;28;20028;-63
2022/01/21 09:21:36;;;;;;;0.30;0.30;;;;;;;;;;5087881;28;20356;-68
2022/01/21 09:24:03;;;;;;;0.63;0.63;;;;;;;;;;5069316;28;20039;-61
2022/01/21 09:26:29;;;;;;;0.28;0.28;;;;;;;;;;5070406;28;20428;-62
2022/01/21 09:28:55;;;;;;;0.28;0.28;;;;;;;;;;5088433;28;20035;-61
2022/01/21 09:31:21;;;;;;;0.20;0.20;;;;;;;;;;5088228;28;20074;-61
2022/01/21 09:33:47;;;;;;;0.20;0.20;;;;;;;;;;5088359;28;20479;-60
2022/01/21 09:36:13;;;;;;;0.20;0.20;;;;;;;;;;5069522;28;20501;-61
2022/01/21 09:38:39;;;;;;;1.27;0.80;;;;;;;;;;5087671;28;20062;-67
2022/01/21 09:41:06;;;;;;;0.30;0.30;;;;;;;;;;5087197;28;20020;-61
2022/01/21 09:43:33;;;;;;;0.20;0.20;;;;;;;;;;5087909;28;20036;-62
2022/01/21 09:46:04;;;;;;;0.20;0.20;;;;;;;;;;5087618;28;20023;-61
2022/01/21 09:48:35;;;;;;;0.30;0.30;;;;;;;;;;5069812;28;20043;-59
2022/01/21 09:51:02;;;;;;;0.30;0.30;;;;;;;;;;5069109;28;20107;-60
2022/01/21 09:53:29;;;;;;;0.30;0.30;;;;;;;;;;5087539;28;20040;-62
2022/01/21 09:55:56;;;;;;;0.88;0.88;;;;;;;;;;5087015;28;20024;-62
2022/01/21 09:58:22;;;;;;;0.65;0.65;;;;;;;;;;5082853;28;20025;-62
2022/01/21 10:00:48;;;;;;;2.45;1.67;;;;;;;;;;5073971;28;20039;-61
2022/01/21 10:03:14;;;;;;;0.40;0.40;;;;;;;;;;5086900;28;20491;-69
2022/01/21 10:05:39;;;;;;;0.47;0.47;;;;;;;;;;5084850;28;20016;-68
2022/01/21 10:08:07;;;;;;;0.47;0.47;;;;;;;;;;5084748;28;20035;-67
2022/01/21 10:10:33;;;;;;;0.35;0.35;;;;;;;;;;5068805;28;20075;-67
2022/01/21 10:13:02;;;;;;;0.30;0.30;;;;;;;;;;5085735;28;20066;-69
2022/01/21 10:15:29;;;;;;;0.30;0.30;;;;;;;;;;5086040;28;20024;-68
2022/01/21 10:18:12;;;;;;;3.42;1.42;;;;;;;;;;5052425;28;20028;-67
2022/01/21 10:20:38;;;;;;;0.55;0.55;;;;;;;;;;5087517;28;20068;-68
2022/01/21 10:23:08;;;;;;;0.30;0.30;;;;;;;;;;5088484;28;20032;-68
2022/01/21 10:25:34;;;;;;;0.20;0.20;;;;;;;;;;5091283;28;20043;-69
2022/01/21 10:28:10;;;;;;;1.33;1.33;;;;;;;;;;5090444;28;20475;-67
2022/01/21 10:30:36;;;;;;;0.30;0.30;;;;;;;;;;5091256;28;20035;-69
2022/01/21 10:33:16;;;;;;;0.30;0.30;;;;;;;;;;5090416;28;20509;-69
2022/01/21 10:35:46;;;;;;;0.68;0.68;;;;;;;;;;5072733;28;20093;-68
2022/01/21 10:38:15;;;;;;;0.63;0.63;;;;;;;;;;5090587;28;20081;-68
2022/01/21 10:40:41;;;;;;;10.87;3.93;;;;;;;;;;5090644;28;20040;-69
2022/01/21 10:43:14;;;;;;;0.30;0.30;;;;;;;;;;5072886;28;20024;-68
2022/01/21 10:46:06;;;;;;;0.45;0.45;;;;;;;;;;5072798;28;20385;-68
2022/01/21 10:48:52;;;;;;;0.30;0.30;;;;;;;;;;5086701;28;20389;-68
2022/01/21 10:51:24;;;;;;;1.52;0.93;;;;;;;;;;5065806;28;20041;-67
2022/01/21 10:53:50;;;;;;;0.50;0.50;;;;;;;;;;5070288;28;20044;-68
2022/01/21 10:56:16;;;;;;;0.30;0.30;;;;;;;;;;5070007;28;20396;-68
2022/01/21 10:58:43;;;;;;;0.32;0.32;;;;;;;;;;5070394;28;20040;-68
2022/01/21 11:01:17;;;;;;;0.30;0.30;;;;;;;;;;5070322;28;20567;-68
2022/01/21 11:03:55;;;;;;;0.50;0.50;;;;;;;;;;5054827;28;20032;-69
2022/01/21 11:06:24;;;;;;;3.65;1.55;;;;;;;;;;5079219;28;20028;-67
2022/01/21 11:08:50;;;;;;;0.35;0.35;;;;;;;;;;5042848;28;20039;-68
2022/01/21 11:11:22;;;;;;;0.38;0.38;;;;;;;;;;5078881;28;20387;-69
2022/01/21 11:13:47;;;;;;;0.90;0.50;;;;;;;;;;5087454;28;20040;-68
2022/01/21 11:16:16;;;;;;;0.20;0.20;;;;;;;;;;5084591;28;20101;-69
2022/01/21 11:19:10;;;;;;;0.28;0.28;;;;;;;;;;5088050;28;20039;-69
2022/01/21 11:21:54;;;;;;;1.85;0.82;;;;;;;;;;5086073;28;20044;-68
2022/01/21 11:24:21;;;;;;;0.28;0.28;;;;;;;;;;5088472;28;20188;-69
2022/01/21 11:27:05;;;;;;;0.22;0.22;;;;;;;;;;5053441;28;20028;-68
2022/01/21 11:29:31;;;;;;;0.28;0.28;;;;;;;;;;5090026;28;20048;-69
2022/01/21 11:31:56;;;;;;;0.30;0.30;;;;;;;;;;5090081;28;20483;-68
2022/01/21 11:34:21;;;;;;;0.20;0.20;;;;;;;;;;5089738;28;20060;-68
2022/01/21 11:36:47;;;;;;;1.20;0.85;;;;;;;;;;5089883;28;20039;-68
2022/01/21 11:39:13;;;;;;;2.00;1.58;;;;;;;;;;5089948;28;20066;-67
2022/01/21 11:41:40;;;;;;;0.30;0.30;;;;;;;;;;5089029;28;20020;-67
2022/01/21 11:44:06;;;;;;;0.47;0.47;;;;;;;;;;5069997;28;20422;-67
2022/01/21 11:49:04;;;;;;;0.20;0.20;;;;;;;;;;5088115;28;20071;-68
2022/01/21 11:51:33;;;;;;;2.87;2.77;;;;;;;;;;5088040;28;20430;-68
2022/01/21 11:54:05;;;;;;;0.30;0.30;;;;;;;;;;5087828;28;20028;-68
2022/01/21 11:56:35;;;;;;;0.30;0.30;;;;;;;;;;5087811;28;20075;-68
2022/01/21 11:59:01;;;;;;;0.30;0.30;;;;;;;;;;5089489;28;20416;-68
2022/01/21 12:01:34;;;;;;;0.63;0.63;;;;;;;;;;5089719;28;20061;-67
2022/01/21 12:04:03;;;;;;;1.55;0.55;;;;;;;;;;5055142;28;20024;-67
2022/01/21 12:06:28;;;;;;;;;;;;;;;;;;5072094;28;20039;-66
2022/01/21 12:08:55;;;;;;;0.50;0.50;;;;;;;;;;5089242;28;19912;-66
2022/01/21 12:11:39;;;;;;;0.30;0.30;;;;;;;;;;5071652;28;20511;-66
2022/01/21 12:14:27;;;;;;;0.28;0.28;;;;;;;;;;5071266;28;20036;-67
2022/01/21 12:16:59;;;;;;;0.65;0.65;;;;;;;;;;5089323;28;20040;-67
2022/01/21 12:19:32;;;;;;;0.30;0.30;;;;;;;;;;5089754;28;20043;-68
2022/01/21 12:22:09;;;;;;;0.40;0.40;;;;;;;;;;5089480;28;20479;-67
2022/01/21 12:25:02;;;;;;;0.25;0.25;;;;;;;;;;5089547;28;20060;-68
2022/01/21 12:27:28;;;;;;;0.32;0.30;;;;;;;;;;5089474;28;20032;-66
2022/01/21 12:30:13;;;;;;;0.35;0.35;;;;;;;;;;5089120;28;20028;-68
2022/01/21 12:33:14;;;;;;;0.57;0.57;;;;;;;;;;5088878;28;20062;-68
2022/01/21 12:35:56;;;;;;;0.30;0.30;;;;;;;;;;4990564;28;20064;-68
2022/01/21 12:40:54;;;;;;;0.57;0.57;;;;;;;;;;5070797;28;20032;-67
2022/01/21 12:43:36;;;;;;;0.95;0.95;;;;;;;;;;5071492;28;20093;-68
2022/01/21 12:46:02;;;;;;;0.40;0.40;;;;;;;;;;5088344;28;20032;-67
2022/01/21 12:48:32;;;;;;;1.27;1.08;;;;;;;;;;5089208;28;20503;-67
2022/01/21 12:51:16;;;;;;;11.35;2.05;;;;;;;;;;5071610;28;20329;-68
2022/01/21 12:55:55;;;;;;;0.30;0.30;;;;;;;;;;5070957;28;20086;-68
2022/01/21 12:56:28;;;;;;;2.08;1.13;;;;;;;;;;5089049;28;20372;-68
2022/01/21 12:58:54;;;;;;;0.20;0.20;;;;;;;;;;5070843;28;20035;-68
2022/01/21 13:01:20;;;;;;;0.43;0.43;;;;;;;;;;5088975;28;20165;-68
2022/01/21 13:03:56;;;;;;;2.28;1.35;;;;;;;;;;5088868;28;20020;-67
2022/01/21 13:06:28;;;;;;;0.20;0.20;;;;;;;;;;5088364;28;20036;-68
2022/01/21 13:09:08;;;;;;;0.75;0.75;;;;;;;;;;5088298;28;20088;-68
2022/01/21 13:11:38;;;;;;;0.30;0.30;;;;;;;;;;5088734;28;20056;-68
2022/01/21 13:16:56;;;;;;;1.23;0.95;;;;;;;;;;5088412;28;20032;-67
2022/01/21 13:19:22;;;;;;;4.38;1.20;;;;;;;;;;5088631;28;20031;-66
2022/01/21 13:21:47;;;;;;;0.30;0.30;;;;;;;;;;5088928;28;20113;-66
2022/01/21 13:24:25;;;;;;;1.65;1.13;;;;;;;;;;5088654;28;20044;-66
2022/01/21 13:26:52;;;;;;;0.45;0.45;;;;;;;;;;5088446;28;20032;-66
2022/01/21 13:29:18;;;;;;;2.38;1.17;;;;;;;;;;5088338;28;20093;-65
2022/01/21 13:31:47;;;;;;;1.50;1.40;;;;;;;;;;5088642;28;20020;-67
2022/01/21 13:34:13;;;;;;;4.18;1.38;;;;;;;;;;5088617;28;20525;-66
2022/01/21 13:36:49;;;;;;;2.90;1.05;;;;;;;;;;5087683;28;20472;-67
2022/01/21 13:39:15;;;;;;;4.05;1.80;;;;;;;;;;5070318;28;20036;-66
2022/01/21 13:41:53;;;;;;;3.88;1.60;;;;;;;;;;5070048;28;20093;-65
2022/01/21 13:44:41;;;;;;;0.22;0.22;;;;;;;;;;5088345;28;20371;-66
2022/01/21 13:47:21;;;;;;;4.18;1.38;;;;;;;;;;5088107;28;20487;-66
2022/01/21 13:49:47;;;;;;;4.28;1.58;;;;;;;;;;5070587;28;20365;-66
2022/01/21 13:52:12;;;;;;;0.20;0.20;;;;;;;;;;5088534;28;20433;-67
2022/01/21 13:54:43;;;;;;;0.20;0.20;;;;;;;;;;5088011;28;20426;-66
2022/01/21 13:57:09;;;;;;;0.30;0.30;;;;;;;;;;5088387;28;20199;-66
2022/01/21 13:59:46;;;;;;;0.22;0.22;;;;;;;;;;5073331;28;20032;-67
2022/01/21 14:02:12;;;;;;;0.30;0.30;;;;;;;;;;5091927;28;20074;-67
2022/01/21 14:04:38;;;;;;;5.03;2.72;;;;;;;;;;5056916;28;20384;-67
2022/01/21 14:07:19;;;;;;;0.40;0.40;;;;;;;;;;5056624;28;20039;-66
2022/01/21 14:09:45;;;;;;;3.83;2.40;;;;;;;;;;5091523;28;20086;-66
2022/01/21 14:12:11;;;;;;;8.07;1.15;;;;;;;;;;5088423;28;20060;-67
2022/01/21 14:14:36;;;;;;;0.20;0.20;;;;;;;;;;5037822;28;20063;-67
2022/01/21 14:17:02;;;;;;;0.20;0.20;;;;;;;;;;5081751;28;20051;-67
2022/01/21 14:19:29;;;;;;;0.20;0.20;;;;;;;;;;5091788;28;20046;-67
2022/01/21 14:22:02;;;;;;;0.20;0.20;;;;;;;;;;5091262;28;20467;-67
2022/01/21 14:24:28;;;;;;;0.20;0.20;;;;;;;;;;5073358;28;20494;-67
2022/01/21 14:26:55;;;;;;;0.20;0.20;;;;;;;;;;5082787;28;20041;-67
2022/01/21 14:29:27;;;;;;;0.20;0.20;;;;;;;;;;5050758;28;20036;-67
2022/01/21 14:31:54;;;;;;;0.40;0.40;;;;;;;;;;5087563;28;20032;-68
2022/01/21 14:34:21;;;;;;;0.20;0.20;;;;;;;;;;5074692;28;20033;-67
2022/01/21 14:36:59;;;;;;;0.20;0.20;;;;;;;;;;5035898;28;20119;-67
2022/01/21 14:39:25;;;;;;;0.70;0.70;;;;;;;;;;5070479;28;20127;-67
2022/01/21 14:41:52;;;;;;;0.30;0.30;;;;;;;;;;5075408;28;20484;-68
2022/01/21 14:44:31;;;;;;;0.20;0.20;;;;;;;;;;5090968;28;20063;-67
2022/01/21 14:47:19;;;;;;;0.38;0.38;;;;;;;;;;5075180;28;20468;-67
2022/01/21 14:49:46;;;;;;;0.30;0.30;;;;;;;;;;5074077;28;20040;-67
2022/01/21 14:54:54;;;;;;;0.50;0.47;;;;;;;;;;5076534;28;20085;-67
2022/01/21 14:57:29;;;;;;;0.30;0.30;;;;;;;;;;5075590;28;20028;-67
2022/01/21 14:59:56;;;;;;;0.45;0.45;;;;;;;;;;5068370;28;20044;-66
2022/01/21 15:02:28;;;;;;;0.30;0.30;;;;;;;;;;5068450;28;20047;-67
2022/01/21 15:04:55;;;;;;;0.40;0.40;;;;;;;;;;5051058;28;20098;-65
2022/01/21 15:07:25;;;;;;;5.80;1.55;;;;;;;;;;5070201;28;20112;-66
2022/01/21 15:09:53;;;;;;;0.73;0.73;;;;;;;;;;5067570;28;20037;-66
2022/01/21 15:15:41;;;;;;;0.52;0.52;;;;;;;;;;5068532;28;20044;-66
2022/01/21 15:18:06;;;;;;;0.85;0.73;;;;;;;;;;5053854;28;20089;-65
2022/01/21 15:20:36;;;;;;;0.60;0.60;;;;;;;;;;5076627;28;20024;-65
2022/01/21 15:23:03;;;;;;;0.20;0.20;;;;;;;;;;5070281;28;20561;-66
2022/01/21 15:25:28;;;;;;;0.50;0.50;;;;;;;;;;5051861;28;20515;-65
2022/01/21 15:27:54;;;;;;;1.10;1.10;;;;;;;;;;5052122;28;20068;-65
2022/01/21 15:30:21;;;;;;;0.47;0.47;;;;;;;;;;5058472;28;20107;-66
2022/01/21 15:32:56;;;;;;;0.45;0.45;;;;;;;;;;5054222;28;20020;-63
2022/01/21 15:35:30;;;;;;;0.50;0.50;;;;;;;;;;5055445;28;20114;-62
2022/01/21 15:37:56;;;;;;;2.17;1.08;;;;;;;;;;5071858;28;20032;-61
2022/01/21 15:40:21;;;;;;;0.50;0.50;;;;;;;;;;5055277;28;20070;-65
2022/01/21 15:42:47;;;;;;;0.20;0.20;;;;;;;;;;5072038;28;20090;-62
2022/01/21 15:45:13;;;;;;;0.20;0.20;;;;;;;;;;5090215;28;20039;-61
2022/01/21 15:47:38;;;;;;;0.30;0.30;;;;;;;;;;5090154;28;20032;-62
2022/01/21 15:50:04;;;;;;;0.10;0.10;;;;;;;;;;5090028;28;20506;-63
2022/01/21 15:52:30;;;;;;;0.65;0.65;;;;;;;;;;5071583;28;20040;-62
2022/01/21 15:54:56;;;;;;;3.15;1.83;;;;;;;;;;5089539;28;20031;-62
2022/01/21 15:57:21;;;;;;;0.32;0.30;;;;;;;;;;5090050;28;20107;-62
2022/01/21 15:59:47;;;;;;;0.90;0.73;;;;;;;;;;5054872;28;20028;-64